aviador You're here:

KRXE Decoded Metar

REXBURG in ID, USA
Report Time2018-06-18 19:01:00
UTC Time2018-06-18 19:14:59
Flight Rules mvfr MVFR
WindCalm
Visibility9999 m
Phenomena:N/A
Clouds:Few 015 Hf
Broken 021 Hf
Broken 027 Hf
Expected CloudBase > 1,200 ft AGL from Temp-Dew spread
Ceiling2,100 ft
Temp12°C (ISA +7)
Dew Point09°C (82% RH)
AAT11.8°C
QNH1018 hPa
Density Alt5,640 ft
Elevation4,856 ft
Report Wrong Elevation
Raw Report
KRXE 181901Z AUTO 00000KT 10SM FEW015 BKN021 BKN027 12/09 A3007
RMK AO2 T01220094=

Extra information for KRXE:More info

Metar Taf Metar & Taf Last 4 Metars F.Rules Stats Wind Profile Meteogram Temp Stats Airport Information Weather charts Add Link Nearby VenuesMetar ALERT Operation Metar Decoded Social comments

AIRNAV info for KRXE